sensor_id;sensor_type;location;lat;lon;timestamp;pressure;altitude;pressure_sealevel;temperature;humidity
53689;BME280;39583;54.682;30.662;2023-07-31T05:11:25;98846.69;;;21.02;78.61
53689;BME280;39583;54.682;30.662;2023-07-31T05:13:53;98846.59;;;21.07;78.78
53689;BME280;39583;54.682;30.662;2023-07-31T05:16:20;98842.16;;;21.11;79.27
53689;BME280;39583;54.682;30.662;2023-07-31T05:18:47;98847.41;;;21.21;78.45
53689;BME280;39583;54.682;30.662;2023-07-31T05:21:15;98844.50;;;21.32;78.43
53689;BME280;39583;54.682;30.662;2023-07-31T05:23:42;98853.00;;;21.30;77.90
53689;BME280;39583;54.682;30.662;2023-07-31T05:26:11;98800.28;;;20.97;77.83
53689;BME280;39583;54.682;30.662;2023-07-31T05:28:39;98850.91;;;21.27;78.14
53689;BME280;39583;54.682;30.662;2023-07-31T05:31:06;98856.34;;;21.41;77.67
53689;BME280;39583;54.682;30.662;2023-07-31T05:33:34;98844.38;;;21.64;77.11
53689;BME280;39583;54.682;30.662;2023-07-31T05:36:01;98845.09;;;21.92;75.43
53689;BME280;39583;54.682;30.662;2023-07-31T05:38:29;98852.50;;;22.05;75.71
53689;BME280;39583;54.682;30.662;2023-07-31T05:40:56;98847.88;;;22.37;73.89
53689;BME280;39583;54.682;30.662;2023-07-31T05:43:24;98844.00;;;22.60;73.44
53689;BME280;39583;54.682;30.662;2023-07-31T05:45:51;98835.03;;;23.00;71.74
53689;BME280;39583;54.682;30.662;2023-07-31T05:48:18;98835.19;;;22.94;71.07
53689;BME280;39583;54.682;30.662;2023-07-31T05:50:46;98841.06;;;22.79;71.34
53689;BME280;39583;54.682;30.662;2023-07-31T05:53:13;98837.63;;;22.74;71.70
53689;BME280;39583;54.682;30.662;2023-07-31T05:55:40;98828.19;;;22.88;71.30
53689;BME280;39583;54.682;30.662;2023-07-31T05:58:08;98822.69;;;23.28;70.57
53689;BME280;39583;54.682;30.662;2023-07-31T06:00:35;98829.59;;;23.82;69.23
53689;BME280;39583;54.682;30.662;2023-07-31T06:03:02;98834.63;;;24.15;68.03
53689;BME280;39583;54.682;30.662;2023-07-31T06:05:30;98822.00;;;24.14;67.54
53689;BME280;39583;54.682;30.662;2023-07-31T06:07:57;98831.22;;;23.75;66.97
53689;BME280;39583;54.682;30.662;2023-07-31T06:10:24;98845.59;;;23.15;68.37
53689;BME280;39583;54.682;30.662;2023-07-31T06:12:52;98819.69;;;22.67;69.46
53689;BME280;39583;54.682;30.662;2023-07-31T06:15:19;98840.09;;;23.15;69.79
53689;BME280;39583;54.682;30.662;2023-07-31T06:17:47;98835.25;;;23.60;68.66
53689;BME280;39583;54.682;30.662;2023-07-31T06:20:15;98838.53;;;23.97;67.74
53689;BME280;39583;54.682;30.662;2023-07-31T06:22:44;98845.94;;;23.79;66.19
53689;BME280;39583;54.682;30.662;2023-07-31T06:25:12;98850.00;;;23.24;67.05
53689;BME280;39583;54.682;30.662;2023-07-31T09:52:26;98827.59;;;26.17;54.58
53689;BME280;39583;54.682;30.662;2023-07-31T09:54:54;98834.19;;;26.25;54.99
53689;BME280;39583;54.682;30.662;2023-07-31T09:57:21;98839.88;;;26.07;54.83
53689;BME280;39583;54.682;30.662;2023-07-31T09:59:51;98840.06;;;25.81;55.68
53689;BME280;39583;54.682;30.662;2023-07-31T10:02:22;98836.50;;;26.02;55.72
53689;BME280;39583;54.682;30.662;2023-07-31T10:04:50;98830.97;;;26.02;55.26
53689;BME280;39583;54.682;30.662;2023-07-31T14:53:36;98738.09;;;25.94;48.21
53689;BME280;39583;54.682;30.662;2023-07-31T14:56:04;98743.72;;;25.97;47.79
53689;BME280;39583;54.682;30.662;2023-07-31T14:58:31;98736.59;;;25.96;47.69
53689;BME280;39583;54.682;30.662;2023-07-31T15:00:58;98746.50;;;25.97;46.92
53689;BME280;39583;54.682;30.662;2023-07-31T15:03:26;98741.31;;;25.96;47.30
53689;BME280;39583;54.682;30.662;2023-07-31T15:05:53;98749.03;;;26.02;47.53
53689;BME280;39583;54.682;30.662;2023-07-31T15:08:21;98740.69;;;26.11;47.21
53689;BME280;39583;54.682;30.662;2023-07-31T15:10:49;98746.31;;;26.14;47.23
53689;BME280;39583;54.682;30.662;2023-07-31T15:13:16;98747.34;;;26.10;46.49
53689;BME280;39583;54.682;30.662;2023-07-31T15:15:43;98747.75;;;26.00;47.20
53689;BME280;39583;54.682;30.662;2023-07-31T15:18:10;98755.22;;;25.99;46.80
53689;BME280;39583;54.682;30.662;2023-07-31T15:20:38;98755.44;;;25.94;46.88
53689;BME280;39583;54.682;30.662;2023-07-31T15:23:05;98765.06;;;25.88;47.06
53689;BME280;39583;54.682;30.662;2023-07-31T15:25:33;98767.22;;;25.82;46.91
53689;BME280;39583;54.682;30.662;2023-07-31T15:28:01;98764.47;;;25.82;47.32
53689;BME280;39583;54.682;30.662;2023-07-31T15:30:29;98770.25;;;25.90;46.86
53689;BME280;39583;54.682;30.662;2023-07-31T15:32:56;98768.78;;;25.92;46.29
53689;BME280;39583;54.682;30.662;2023-07-31T15:35:24;98778.50;;;25.90;46.40
53689;BME280;39583;54.682;30.662;2023-07-31T15:37:51;98775.75;;;25.90;46.50
53689;BME280;39583;54.682;30.662;2023-07-31T15:40:18;98785.97;;;25.89;46.15
53689;BME280;39583;54.682;30.662;2023-07-31T15:42:46;98787.06;;;25.97;46.04
53689;BME280;39583;54.682;30.662;2023-07-31T15:45:14;98787.69;;;26.14;45.26
53689;BME280;39583;54.682;30.662;2023-07-31T15:47:41;98792.22;;;26.52;44.59
53689;BME280;39583;54.682;30.662;2023-07-31T15:50:11;98787.97;;;27.12;43.38
53689;BME280;39583;54.682;30.662;2023-07-31T15:52:39;98784.06;;;27.90;42.11
53689;BME280;39583;54.682;30.662;2023-07-31T15:55:06;98796.22;;;28.73;41.05
53689;BME280;39583;54.682;30.662;2023-07-31T15:57:34;98788.28;;;29.50;39.68
53689;BME280;39583;54.682;30.662;2023-07-31T16:00:01;98794.34;;;30.10;39.03
53689;BME280;39583;54.682;30.662;2023-07-31T16:02:34;98786.38;;;30.70;38.65
53689;BME280;39583;54.682;30.662;2023-07-31T16:05:02;98783.31;;;31.25;38.04
53689;BME280;39583;54.682;30.662;2023-07-31T16:07:30;98786.69;;;31.64;37.28
53689;BME280;39583;54.682;30.662;2023-07-31T16:09:58;98767.00;;;31.76;37.14
53689;BME280;39583;54.682;30.662;2023-07-31T16:12:26;98781.47;;;31.89;36.44
53689;BME280;39583;54.682;30.662;2023-07-31T16:14:53;98771.06;;;32.16;36.13
53689;BME280;39583;54.682;30.662;2023-07-31T16:17:21;98775.81;;;32.45;35.93
53689;BME280;39583;54.682;30.662;2023-07-31T16:19:49;98779.03;;;32.51;35.83
53689;BME280;39583;54.682;30.662;2023-07-31T16:22:16;98772.56;;;32.40;35.38
53689;BME280;39583;54.682;30.662;2023-07-31T16:24:43;98775.16;;;31.35;36.67
53689;BME280;39583;54.682;30.662;2023-07-31T16:27:11;98772.50;;;29.54;39.60
53689;BME280;39583;54.682;30.662;2023-07-31T16:29:38;98777.84;;;28.09;42.15
53689;BME280;39583;54.682;30.662;2023-07-31T16:32:06;98778.34;;;27.71;43.32
53689;BME280;39583;54.682;30.662;2023-07-31T16:34:38;98782.72;;;27.72;43.90
53689;BME280;39583;54.682;30.662;2023-07-31T16:37:05;98786.00;;;27.13;45.49
53689;BME280;39583;54.682;30.662;2023-07-31T16:39:33;98789.34;;;26.49;47.51
53689;BME280;39583;54.682;30.662;2023-07-31T16:42:03;98782.63;;;25.83;50.68
53689;BME280;39583;54.682;30.662;2023-07-31T16:44:31;98788.94;;;25.34;52.55
53689;BME280;39583;54.682;30.662;2023-07-31T16:46:58;98791.00;;;24.78;54.38
53689;BME280;39583;54.682;30.662;2023-07-31T16:49:25;98798.22;;;24.27;56.34
53689;BME280;39583;54.682;30.662;2023-07-31T16:51:53;98785.31;;;23.84;57.88
53689;BME280;39583;54.682;30.662;2023-07-31T16:54:20;98784.59;;;23.52;59.51
53689;BME280;39583;54.682;30.662;2023-07-31T16:56:47;98790.56;;;23.37;60.09
53689;BME280;39583;54.682;30.662;2023-07-31T16:59:19;98792.28;;;23.16;61.22
53689;BME280;39583;54.682;30.662;2023-07-31T17:01:47;98795.31;;;22.97;62.23
53689;BME280;39583;54.682;30.662;2023-07-31T17:04:15;98785.34;;;22.79;62.83
53689;BME280;39583;54.682;30.662;2023-07-31T17:06:43;98793.16;;;22.54;63.37
53689;BME280;39583;54.682;30.662;2023-07-31T17:09:10;98780.41;;;22.27;64.29
53689;BME280;39583;54.682;30.662;2023-07-31T17:11:38;98792.19;;;22.05;65.33
53689;BME280;39583;54.682;30.662;2023-07-31T17:14:06;98796.50;;;21.84;66.05
53689;BME280;39583;54.682;30.662;2023-07-31T17:16:37;98791.91;;;21.57;66.91
53689;BME280;39583;54.682;30.662;2023-07-31T17:19:04;98798.03;;;21.40;67.91
53689;BME280;39583;54.682;30.662;2023-07-31T17:21:31;98797.81;;;21.51;67.92
53689;BME280;39583;54.682;30.662;2023-07-31T17:23:59;98807.28;;;21.81;67.06
53689;BME280;39583;54.682;30.662;2023-07-31T17:26:29;98804.41;;;21.86;66.98
53689;BME280;39583;54.682;30.662;2023-07-31T17:28:56;98808.84;;;21.59;67.23
53689;BME280;39583;54.682;30.662;2023-07-31T17:31:23;98813.47;;;21.23;68.48
53689;BME280;39583;54.682;30.662;2023-07-31T17:33:51;98815.28;;;20.86;69.54
53689;BME280;39583;54.682;30.662;2023-07-31T17:36:18;98822.09;;;20.56;70.57
53689;BME280;39583;54.682;30.662;2023-07-31T17:38:45;98827.97;;;20.30;71.20
53689;BME280;39583;54.682;30.662;2023-07-31T17:41:13;98823.47;;;20.07;72.09
53689;BME280;39583;54.682;30.662;2023-07-31T17:43:40;98833.06;;;19.86;72.98
53689;BME280;39583;54.682;30.662;2023-07-31T17:46:07;98832.81;;;19.63;73.79
53689;BME280;39583;54.682;30.662;2023-07-31T17:48:35;98830.34;;;19.43;74.62
53689;BME280;39583;54.682;30.662;2023-07-31T17:51:02;98823.53;;;19.22;75.37
53689;BME280;39583;54.682;30.662;2023-07-31T17:53:29;98821.78;;;19.07;76.09
53689;BME280;39583;54.682;30.662;2023-07-31T17:55:56;98825.22;;;18.94;76.45
53689;BME280;39583;54.682;30.662;2023-07-31T17:58:24;98832.47;;;18.79;77.17
53689;BME280;39583;54.682;30.662;2023-07-31T18:00:51;98821.72;;;18.64;77.75
53689;BME280;39583;54.682;30.662;2023-07-31T18:03:19;98828.63;;;18.51;78.14
53689;BME280;39583;54.682;30.662;2023-07-31T18:05:48;98830.09;;;18.39;78.61
53689;BME280;39583;54.682;30.662;2023-07-31T18:08:15;98834.00;;;18.27;79.17
53689;BME280;39583;54.682;30.662;2023-07-31T18:10:44;98833.84;;;18.14;79.77
53689;BME280;39583;54.682;30.662;2023-07-31T18:13:12;98828.25;;;18.00;80.31
53689;BME280;39583;54.682;30.662;2023-07-31T18:15:46;98831.84;;;17.90;80.90
53689;BME280;39583;54.682;30.662;2023-07-31T18:18:14;98840.31;;;17.84;81.06
53689;BME280;39583;54.682;30.662;2023-07-31T18:20:41;98841.22;;;17.74;81.52
53689;BME280;39583;54.682;30.662;2023-07-31T18:23:09;98842.56;;;17.66;81.68
53689;BME280;39583;54.682;30.662;2023-07-31T18:25:39;98844.53;;;17.61;82.30
53689;BME280;39583;54.682;30.662;2023-07-31T18:28:07;98843.72;;;17.55;82.23
53689;BME280;39583;54.682;30.662;2023-07-31T18:30:35;98849.78;;;17.47;82.74
53689;BME280;39583;54.682;30.662;2023-07-31T18:33:03;98851.19;;;17.34;82.97
53689;BME280;39583;54.682;30.662;2023-07-31T18:35:30;98858.00;;;17.27;83.42
53689;BME280;39583;54.682;30.662;2023-07-31T18:37:57;98851.50;;;17.18;83.70
53689;BME280;39583;54.682;30.662;2023-07-31T18:40:25;98849.34;;;17.15;84.12
53689;BME280;39583;54.682;30.662;2023-07-31T18:42:52;98840.69;;;17.07;84.39
53689;BME280;39583;54.682;30.662;2023-07-31T18:45:20;98854.00;;;17.04;84.68
53689;BME280;39583;54.682;30.662;2023-07-31T18:47:48;98846.97;;;16.98;84.89
53689;BME280;39583;54.682;30.662;2023-07-31T18:50:15;98844.25;;;16.93;85.20
53689;BME280;39583;54.682;30.662;2023-07-31T18:52:42;98842.63;;;16.87;85.57
53689;BME280;39583;54.682;30.662;2023-07-31T18:55:10;98834.50;;;16.82;85.49
53689;BME280;39583;54.682;30.662;2023-07-31T18:57:37;98841.03;;;16.75;85.76
53689;BME280;39583;54.682;30.662;2023-07-31T19:00:06;98829.31;;;16.65;86.02
53689;BME280;39583;54.682;30.662;2023-07-31T19:02:33;98832.31;;;16.63;86.29
53689;BME280;39583;54.682;30.662;2023-07-31T19:05:01;98826.88;;;16.53;86.37
